createdAt,value
2019-05-29T00:01:02.375Z,5.17
2019-05-29T00:03:30.772Z,4.70
2019-05-29T00:05:59.091Z,5.35
2019-05-29T00:08:27.349Z,5.55
2019-05-29T00:10:55.631Z,5.62
2019-05-29T00:13:23.893Z,5.08
2019-05-29T00:15:52.188Z,5.67
2019-05-29T00:18:20.500Z,5.70
2019-05-29T00:20:48.776Z,5.83
2019-05-29T00:23:17.059Z,5.40
2019-05-29T00:25:45.301Z,5.60
2019-05-29T00:28:14.750Z,5.80
2019-05-29T00:30:43.341Z,5.47
2019-05-29T00:33:12.130Z,5.95
2019-05-29T00:35:40.631Z,5.60
2019-05-29T00:38:08.903Z,5.12
2019-05-29T00:40:37.172Z,5.00
2019-05-29T00:43:05.477Z,4.53
2019-05-29T00:45:33.766Z,5.35
2019-05-29T00:48:02.091Z,4.70
2019-05-29T00:50:30.393Z,4.53
2019-05-29T00:52:58.738Z,5.08
2019-05-29T00:55:26.967Z,5.10
2019-05-29T00:57:55.239Z,5.05
2019-05-29T01:00:25.090Z,4.87
2019-05-29T01:02:53.404Z,5.47
2019-05-29T01:05:21.783Z,5.30
2019-05-29T01:07:50.063Z,5.60
2019-05-29T01:10:18.914Z,5.08
2019-05-29T01:12:47.344Z,5.17
2019-05-29T01:15:15.639Z,5.28
2019-05-29T01:17:43.876Z,5.30
2019-05-29T01:20:13.924Z,5.28
2019-05-29T01:22:42.325Z,5.65
2019-05-29T01:25:10.590Z,5.22
2019-05-29T01:27:38.850Z,4.97
2019-05-29T01:30:07.458Z,5.12
2019-05-29T01:32:35.698Z,5.67
2019-05-29T01:35:06.151Z,5.15
2019-05-29T01:37:34.441Z,5.65
2019-05-29T01:40:18.685Z,5.42
2019-05-29T01:42:33.014Z,4.85
2019-05-29T01:45:07.852Z,5.55
2019-05-29T01:47:31.292Z,5.55
2019-05-29T01:49:59.522Z,5.22
2019-05-29T01:52:28.100Z,4.83
2019-05-29T01:54:56.429Z,5.40
2019-05-29T01:57:24.667Z,5.25
2019-05-29T01:59:52.917Z,5.30
2019-05-29T02:02:21.960Z,5.25
2019-05-29T02:04:50.316Z,5.20
2019-05-29T02:07:19.877Z,5.42
2019-05-29T02:09:48.304Z,5.78
2019-05-29T02:12:16.607Z,5.35
2019-05-29T02:14:44.966Z,5.47
2019-05-29T02:17:13.205Z,5.50
2019-05-29T02:19:41.591Z,5.70
2019-05-29T02:22:09.858Z,5.12
2019-05-29T02:24:38.111Z,5.35
2019-05-29T02:27:06.432Z,5.22
2019-05-29T02:29:34.687Z,5.15
2019-05-29T02:32:02.931Z,5.58
2019-05-29T02:34:31.196Z,5.87
2019-05-29T02:36:59.467Z,5.75
2019-05-29T02:39:29.221Z,5.55
2019-05-29T02:41:57.894Z,5.78
2019-05-29T02:44:27.606Z,6.22
2019-05-29T02:46:56.128Z,6.15
2019-05-29T02:49:25.741Z,6.15
2019-05-29T02:51:54.276Z,6.25
2019-05-29T02:54:22.684Z,5.95
2019-05-29T02:56:52.644Z,5.97
2019-05-29T02:59:21.212Z,6.53
2019-05-29T03:01:49.616Z,6.95
2019-05-29T03:04:17.881Z,6.95
2019-05-29T03:06:46.133Z,7.35
2019-05-29T03:09:14.384Z,6.40
2019-05-29T03:11:42.616Z,7.62
2019-05-29T03:14:10.882Z,7.47
2019-05-29T03:16:39.152Z,7.08
2019-05-29T03:19:07.423Z,7.00
2019-05-29T03:21:35.682Z,7.75
2019-05-29T03:24:03.986Z,7.85
2019-05-29T03:26:33.450Z,8.00
2019-05-29T03:29:02.464Z,7.40
2019-05-29T03:31:37.711Z,8.08
2019-05-29T03:34:00.723Z,7.58
2019-05-29T03:36:35.800Z,7.47
2019-05-29T03:38:59.086Z,7.95
2019-05-29T03:41:28.234Z,8.40
2019-05-29T03:43:56.585Z,8.00
2019-05-29T03:46:31.583Z,9.05
2019-05-29T03:48:54.814Z,9.15
2019-05-29T03:51:23.069Z,8.63
2019-05-29T03:53:51.309Z,9.25
2019-05-29T03:56:19.585Z,8.65
2019-05-29T03:58:47.846Z,9.00
2019-05-29T04:01:16.277Z,8.70
2019-05-29T04:03:44.751Z,9.33
2019-05-29T04:06:12.989Z,8.63
2019-05-29T04:08:41.222Z,8.43
2019-05-29T04:11:09.502Z,12.40
2019-05-29T04:13:38.866Z,14.05
2019-05-29T04:16:07.539Z,15.10
2019-05-29T04:18:36.031Z,9.63
2019-05-29T04:21:04.924Z,10.20
2019-05-29T04:23:36.450Z,12.10
2019-05-29T04:26:06.261Z,17.50
2019-05-29T04:28:35.267Z,9.83
2019-05-29T04:31:04.549Z,9.40
2019-05-29T04:33:34.767Z,9.25
2019-05-29T04:36:02.804Z,9.53
2019-05-29T04:38:33.251Z,9.00
2019-05-29T04:41:01.054Z,9.20
2019-05-29T04:43:30.920Z,9.20
2019-05-29T04:45:59.466Z,9.00
2019-05-29T04:48:29.414Z,9.55
2019-05-29T04:50:57.721Z,9.00
2019-05-29T04:53:25.965Z,9.05
2019-05-29T04:55:54.238Z,9.00
2019-05-29T04:58:22.489Z,9.43
2019-05-29T05:00:59.309Z,9.05
2019-05-29T05:03:20.779Z,9.00
2019-05-29T05:05:49.034Z,9.23
2019-05-29T05:08:17.283Z,9.55
2019-05-29T05:10:45.534Z,9.18
2019-05-29T05:13:13.834Z,9.60
2019-05-29T05:15:42.109Z,9.58
2019-05-29T05:18:10.350Z,9.73
2019-05-29T05:20:38.579Z,9.75
2019-05-29T05:23:06.888Z,9.75
2019-05-29T05:25:36.225Z,9.35
2019-05-29T05:28:04.972Z,9.10
2019-05-29T05:30:34.305Z,10.03
2019-05-29T05:33:02.845Z,9.63
2019-05-29T05:35:31.088Z,9.90
2019-05-29T05:37:59.443Z,10.18
2019-05-29T05:40:27.765Z,9.90
2019-05-29T05:42:56.039Z,9.95
2019-05-29T05:45:24.274Z,9.80
2019-05-29T05:47:57.375Z,9.23
2019-05-29T05:50:22.993Z,9.35
2019-05-29T05:52:51.238Z,9.10
2019-05-29T05:55:19.470Z,8.65
2019-05-29T05:57:47.721Z,8.63
2019-05-29T06:00:19.255Z,8.48
2019-05-29T06:02:47.492Z,8.00
2019-05-29T06:05:15.750Z,7.87
2019-05-29T06:07:44.069Z,7.70
2019-05-29T06:10:12.326Z,7.25
2019-05-29T06:12:40.667Z,7.42
2019-05-29T06:15:09.083Z,7.03
2019-05-29T06:17:38.594Z,6.70
2019-05-29T06:20:08.007Z,7.17
2019-05-29T06:22:36.903Z,7.30
2019-05-29T06:25:06.203Z,8.00
2019-05-29T06:27:35.158Z,8.43
2019-05-29T06:30:07.400Z,8.05
2019-05-29T06:32:35.660Z,7.72
2019-05-29T06:35:05.146Z,8.33
2019-05-29T06:37:33.668Z,7.75
2019-05-29T06:40:02.041Z,7.95
2019-05-29T06:42:30.288Z,7.92
2019-05-29T06:44:58.602Z,7.83
2019-05-29T06:47:26.967Z,8.10
2019-05-29T06:49:55.215Z,8.25
2019-05-29T06:52:23.477Z,8.20
2019-05-29T06:54:51.727Z,7.95
2019-05-29T06:57:20.006Z,6.78
2019-05-29T06:59:48.925Z,7.12
2019-05-29T07:02:17.284Z,6.92
2019-05-29T07:04:46.563Z,6.80
2019-05-29T07:07:14.949Z,7.72
2019-05-29T07:09:43.217Z,7.42
2019-05-29T07:12:11.442Z,6.87
2019-05-29T07:14:40.278Z,6.40
2019-05-29T07:17:08.746Z,6.33
2019-05-29T07:19:48.846Z,6.10
2019-05-29T07:22:06.964Z,6.05
2019-05-29T07:24:35.224Z,6.62
2019-05-29T07:27:03.467Z,5.42
2019-05-29T07:29:31.708Z,5.42
2019-05-29T07:31:59.970Z,5.87
2019-05-29T07:34:28.260Z,5.90
2019-05-29T07:36:56.539Z,5.42
2019-05-29T07:39:24.827Z,5.03
2019-05-29T07:41:53.098Z,4.75
2019-05-29T07:44:21.342Z,5.33
2019-05-29T07:46:49.650Z,6.20
2019-05-29T07:49:17.887Z,6.60
2019-05-29T07:51:46.761Z,6.08
2019-05-29T07:54:15.373Z,6.33
2019-05-29T07:56:44.497Z,5.50
2019-05-29T07:59:12.607Z,5.35
2019-05-29T08:01:40.791Z,4.60
2019-05-29T08:04:09.013Z,5.22
2019-05-29T08:06:37.039Z,4.83
2019-05-29T08:09:06.409Z,4.85
2019-05-29T08:11:34.485Z,5.33
2019-05-29T08:14:02.484Z,4.85
2019-05-29T08:16:30.510Z,5.08
2019-05-29T08:18:58.489Z,4.87
2019-05-29T08:21:26.502Z,4.87
2019-05-29T08:23:54.508Z,4.85
2019-05-29T08:26:22.523Z,4.83
2019-05-29T08:28:51.146Z,5.15
2019-05-29T08:31:19.400Z,5.12
2019-05-29T08:33:47.395Z,5.20
2019-05-29T08:36:15.415Z,4.78
2019-05-29T08:38:44.483Z,5.50
2019-05-29T08:41:15.482Z,5.40
2019-05-29T08:43:45.220Z,4.62
2019-05-29T08:46:13.225Z,4.83
2019-05-29T08:48:41.801Z,4.78
2019-05-29T08:51:09.942Z,4.78
2019-05-29T08:53:37.965Z,4.25
2019-05-29T08:56:06.031Z,4.90
2019-05-29T08:58:37.142Z,4.70
2019-05-29T09:01:03.847Z,5.08
2019-05-29T09:03:31.870Z,4.78
2019-05-29T09:06:08.661Z,4.80
2019-05-29T09:08:29.622Z,4.70
2019-05-29T09:10:57.669Z,4.22
2019-05-29T09:13:25.666Z,4.25
2019-05-29T09:15:53.710Z,4.00
2019-05-29T09:18:25.278Z,4.08
2019-05-29T09:21:02.626Z,4.08
2019-05-29T09:23:23.159Z,3.75
2019-05-29T09:25:51.685Z,3.90
2019-05-29T09:28:20.385Z,4.33
2019-05-29T09:30:49.048Z,4.55
2019-05-29T09:33:19.494Z,4.50
2019-05-29T09:35:47.266Z,4.70
2019-05-29T09:38:16.745Z,4.10
2019-05-29T09:40:45.247Z,4.28
2019-05-29T09:43:13.527Z,4.17
2019-05-29T09:45:41.792Z,3.87
2019-05-29T09:48:10.089Z,3.95
2019-05-29T09:50:50.147Z,3.85
2019-05-29T09:53:08.402Z,4.10
2019-05-29T09:55:36.647Z,4.20
2019-05-29T09:58:04.903Z,3.95
2019-05-29T10:00:33.161Z,3.50
2019-05-29T10:03:01.503Z,3.98
2019-05-29T10:05:30.307Z,3.92
2019-05-29T10:07:59.630Z,4.00
2019-05-29T10:10:28.404Z,4.28
2019-05-29T10:12:57.993Z,3.80
2019-05-29T10:15:26.476Z,4.03
2019-05-29T10:17:55.753Z,3.85
2019-05-29T10:20:24.686Z,4.08
2019-05-29T10:22:52.943Z,4.22
2019-05-29T10:25:21.189Z,4.08
2019-05-29T10:27:49.480Z,4.70
2019-05-29T10:30:19.418Z,5.00
2019-05-29T10:32:48.201Z,5.10
2019-05-29T10:35:16.665Z,4.85
2019-05-29T10:37:44.924Z,5.03
2019-05-29T10:40:13.199Z,6.00
2019-05-29T10:42:42.759Z,4.90
2019-05-29T10:45:11.451Z,4.95
2019-05-29T10:47:39.695Z,4.80
2019-05-29T10:50:09.012Z,5.28
2019-05-29T10:52:37.321Z,5.30
2019-05-29T10:55:07.193Z,4.65
2019-05-29T10:57:35.455Z,4.87
2019-05-29T11:00:08.187Z,5.17
2019-05-29T11:02:36.441Z,4.92
2019-05-29T11:05:05.752Z,4.90
2019-05-29T11:07:34.010Z,4.50
2019-05-29T11:10:02.251Z,4.33
2019-05-29T11:12:30.569Z,4.12
2019-05-29T11:14:58.836Z,3.70
2019-05-29T11:17:27.152Z,4.35
2019-05-29T11:19:55.684Z,3.80
2019-05-29T11:22:26.587Z,3.90
2019-05-29T11:24:54.164Z,3.85
2019-05-29T11:27:25.865Z,3.95
2019-05-29T11:29:53.264Z,3.92
2019-05-29T11:32:22.051Z,3.40
2019-05-29T11:34:52.312Z,3.45
2019-05-29T11:37:20.301Z,3.10
2019-05-29T11:39:48.548Z,3.60
2019-05-29T11:42:26.815Z,3.00
2019-05-29T11:44:46.772Z,3.10
2019-05-29T11:47:15.016Z,3.58
2019-05-29T11:49:43.269Z,3.52
2019-05-29T11:52:23.337Z,3.55
2019-05-29T11:54:41.509Z,3.40
2019-05-29T11:57:09.769Z,3.20
2019-05-29T11:59:38.024Z,3.30
2019-05-29T12:02:06.280Z,3.72
2019-05-29T12:04:34.507Z,3.55
2019-05-29T12:07:02.774Z,2.90
2019-05-29T12:09:33.212Z,3.20
2019-05-29T12:12:02.151Z,3.40
2019-05-29T12:14:30.656Z,3.45
2019-05-29T12:17:00.453Z,3.60
2019-05-29T12:19:29.077Z,3.37
2019-05-29T12:21:58.362Z,3.85
2019-05-29T12:24:26.843Z,3.90
2019-05-29T12:26:56.332Z,3.83
2019-05-29T12:29:24.846Z,3.92
2019-05-29T12:31:53.116Z,3.52
2019-05-29T12:34:21.359Z,3.85
2019-05-29T12:36:49.589Z,3.50
2019-05-29T12:39:17.866Z,3.30
2019-05-29T12:41:46.127Z,2.72
2019-05-29T12:44:14.369Z,2.80
2019-05-29T12:46:42.616Z,2.75
2019-05-29T12:49:10.870Z,2.92
2019-05-29T12:51:39.133Z,3.00
2019-05-29T12:54:07.421Z,2.92
2019-05-29T12:56:35.706Z,3.33
2019-05-29T12:59:04.703Z,3.37
2019-05-29T13:01:33.062Z,3.27
2019-05-29T13:04:02.391Z,2.98
2019-05-29T13:06:30.840Z,3.05
2019-05-29T13:09:00.424Z,3.22
2019-05-29T13:11:28.917Z,2.90
2019-05-29T13:13:58.323Z,2.98
2019-05-29T13:16:26.806Z,3.00
2019-05-29T13:18:55.040Z,3.17
2019-05-29T13:21:23.297Z,3.22
2019-05-29T13:23:51.560Z,3.30
2019-05-29T13:26:19.804Z,3.15
2019-05-29T13:28:48.049Z,3.40
2019-05-29T13:31:16.291Z,3.42
2019-05-29T13:33:44.533Z,2.95
2019-05-29T13:36:12.796Z,3.45
2019-05-29T13:38:41.063Z,3.65
2019-05-29T13:41:09.312Z,4.00
2019-05-29T13:43:37.549Z,3.90
2019-05-29T13:46:05.792Z,3.85
2019-05-29T13:48:34.066Z,4.08
2019-05-29T13:51:03.671Z,3.90
2019-05-29T13:53:32.164Z,4.00
2019-05-29T13:56:01.768Z,3.90
2019-05-29T13:58:30.250Z,4.00
2019-05-29T14:00:58.509Z,5.33
2019-05-29T14:03:26.768Z,4.40
2019-05-29T14:05:55.014Z,4.00
2019-05-29T14:08:23.533Z,4.03
2019-05-29T14:10:51.782Z,4.00
2019-05-29T14:13:20.063Z,3.87
2019-05-29T14:15:48.319Z,3.50
2019-05-29T14:18:16.567Z,3.20
2019-05-29T14:20:44.808Z,3.20
2019-05-29T14:23:13.069Z,3.80
2019-05-29T14:25:41.399Z,3.40
2019-05-29T14:28:09.671Z,3.50
2019-05-29T14:30:38.025Z,3.20
2019-05-29T14:33:06.883Z,3.27
2019-05-29T14:35:36.351Z,3.05
2019-05-29T14:38:08.912Z,3.12
2019-05-29T14:40:34.565Z,3.10
2019-05-29T14:43:06.859Z,3.00
2019-05-29T14:45:32.784Z,3.08
2019-05-29T14:48:02.165Z,3.25
2019-05-29T14:50:30.554Z,3.10
2019-05-29T14:52:58.854Z,3.25
2019-05-29T14:55:27.127Z,4.05
2019-05-29T14:57:55.392Z,3.90
2019-05-29T15:00:25.733Z,4.60
2019-05-29T15:02:53.695Z,3.33
2019-05-29T15:05:22.703Z,3.12
2019-05-29T15:07:50.964Z,2.83
2019-05-29T15:10:27.037Z,2.95
2019-05-29T15:12:49.216Z,3.47
2019-05-29T15:15:17.526Z,4.00
2019-05-29T15:17:45.804Z,3.05
2019-05-29T15:20:16.161Z,2.65
2019-05-29T15:22:44.033Z,4.40
2019-05-29T15:25:21.860Z,5.00
2019-05-29T15:27:43.513Z,4.10
2019-05-29T15:30:16.158Z,7.03
2019-05-29T15:32:41.847Z,4.28
2019-05-29T15:35:13.792Z,3.90
2019-05-29T15:37:40.490Z,3.95
2019-05-29T15:40:08.951Z,3.70
2019-05-29T15:42:37.240Z,4.95
2019-05-29T15:45:09.870Z,8.85
2019-05-29T15:47:38.278Z,4.50
2019-05-29T15:50:09.000Z,4.70
2019-05-29T15:52:38.314Z,4.53
2019-05-29T15:55:21.426Z,4.70
2019-05-29T15:57:37.198Z,4.28
2019-05-29T16:00:09.146Z,3.90
2019-05-29T16:02:37.494Z,4.22
2019-05-29T16:05:06.155Z,3.80
2019-05-29T16:07:34.398Z,3.95
2019-05-29T16:10:02.774Z,3.70
2019-05-29T16:12:31.398Z,3.60
2019-05-29T16:14:59.717Z,4.78
2019-05-29T16:17:27.977Z,7.78
2019-05-29T16:19:56.318Z,6.78
2019-05-29T16:22:24.563Z,4.87
2019-05-29T16:24:52.808Z,4.58
2019-05-29T16:27:22.296Z,5.40
2019-05-29T16:29:50.681Z,4.72
2019-05-29T16:32:20.252Z,6.40
2019-05-29T16:34:48.645Z,8.20
2019-05-29T16:37:17.404Z,9.33
2019-05-29T16:39:45.847Z,8.23
2019-05-29T16:42:14.086Z,6.10
2019-05-29T16:44:42.349Z,5.58
2019-05-29T16:47:10.603Z,5.58
2019-05-29T16:49:38.830Z,5.35
2019-05-29T16:52:07.096Z,5.03
2019-05-29T16:54:35.375Z,4.97
2019-05-29T16:57:03.634Z,4.72
2019-05-29T16:59:31.889Z,5.40
2019-05-29T17:02:00.122Z,8.30
2019-05-29T17:04:28.374Z,5.42
2019-05-29T17:06:56.810Z,5.12
2019-05-29T17:09:25.073Z,4.42
2019-05-29T17:11:53.443Z,4.30
2019-05-29T17:14:22.861Z,4.40
2019-05-29T17:16:51.208Z,4.15
2019-05-29T17:19:20.574Z,4.00
2019-05-29T17:21:49.089Z,4.50
2019-05-29T17:24:18.524Z,3.85
2019-05-29T17:26:47.089Z,4.05
2019-05-29T17:29:16.763Z,4.15
2019-05-29T17:31:45.163Z,3.98
2019-05-29T17:34:14.828Z,3.75
2019-05-29T17:36:43.164Z,3.92
2019-05-29T17:39:11.419Z,3.65
2019-05-29T17:41:39.681Z,3.35
2019-05-29T17:44:07.959Z,3.10
2019-05-29T17:46:36.248Z,3.17
2019-05-29T17:49:06.290Z,3.10
2019-05-29T17:51:34.556Z,3.02
2019-05-29T17:54:02.874Z,3.10
2019-05-29T17:56:36.554Z,4.22
2019-05-29T17:59:01.117Z,3.60
2019-05-29T18:01:32.195Z,3.20
2019-05-29T18:04:00.434Z,3.20
2019-05-29T18:06:28.699Z,2.95
2019-05-29T18:08:57.019Z,3.00
2019-05-29T18:11:25.635Z,3.00
2019-05-29T18:13:53.872Z,2.90
2019-05-29T18:16:23.441Z,11.40
2019-05-29T18:18:51.904Z,7.00
2019-05-29T18:21:21.506Z,4.42
2019-05-29T18:23:53.281Z,3.22
2019-05-29T18:26:20.047Z,8.88
2019-05-29T18:28:48.318Z,5.70
2019-05-29T18:31:16.563Z,5.20
2019-05-29T18:33:44.817Z,3.40
2019-05-29T18:36:13.063Z,3.17
2019-05-29T18:38:41.322Z,3.15
2019-05-29T18:41:10.102Z,3.35
2019-05-29T18:43:38.442Z,3.00
2019-05-29T18:46:07.265Z,3.90
2019-05-29T18:48:35.723Z,4.97
2019-05-29T18:51:03.984Z,4.05
2019-05-29T18:53:33.082Z,3.35
2019-05-29T18:56:01.592Z,3.02
2019-05-29T18:58:30.708Z,3.40
2019-05-29T19:00:59.213Z,2.95
2019-05-29T19:03:27.579Z,2.83
2019-05-29T19:05:55.935Z,3.00
2019-05-29T19:08:25.711Z,3.30
2019-05-29T19:10:54.075Z,3.20
2019-05-29T19:13:22.351Z,3.37
2019-05-29T19:15:51.097Z,3.20
2019-05-29T19:18:19.395Z,3.20
2019-05-29T19:20:47.723Z,3.20
2019-05-29T19:23:16.009Z,2.92
2019-05-29T19:25:44.253Z,3.15
2019-05-29T19:28:12.652Z,2.77
2019-05-29T19:30:40.987Z,8.88
2019-05-29T19:33:09.218Z,29.57
2019-05-29T19:35:37.553Z,23.50
2019-05-29T19:38:05.832Z,15.90
2019-05-29T19:40:34.551Z,14.43
2019-05-29T19:43:03.545Z,13.85
2019-05-29T19:45:32.587Z,12.05
2019-05-29T19:48:02.625Z,9.98
2019-05-29T19:50:30.929Z,7.78
2019-05-29T19:52:59.175Z,6.87
2019-05-29T19:55:30.431Z,5.00
2019-05-29T19:57:57.439Z,18.95
2019-05-29T20:00:25.998Z,19.00
2019-05-29T20:02:54.502Z,18.37
2019-05-29T20:05:23.369Z,9.05
2019-05-29T20:07:51.694Z,5.03
2019-05-29T20:10:25.455Z,3.85
2019-05-29T20:17:34.328Z,4.35
2019-05-29T20:18:44.399Z,3.98
2019-05-29T20:21:22.164Z,4.50
2019-05-29T20:24:06.065Z,4.25
2019-05-29T20:26:44.173Z,19.70
2019-05-29T20:29:12.230Z,27.85
2019-05-29T20:31:42.865Z,13.58
2019-05-29T20:34:11.018Z,6.70
2019-05-29T20:36:40.026Z,4.20
2019-05-29T20:39:09.498Z,4.10
2019-05-29T20:41:39.159Z,3.90
2019-05-29T20:44:07.633Z,3.80
2019-05-29T20:46:38.890Z,4.15
2019-05-29T20:49:07.287Z,3.98
2019-05-29T20:51:36.161Z,3.95
2019-05-29T20:54:04.394Z,3.92
2019-05-29T20:56:33.632Z,3.52
2019-05-29T20:59:02.081Z,4.00
2019-05-29T21:01:30.108Z,3.62
2019-05-29T21:03:58.116Z,3.87
2019-05-29T21:06:26.127Z,4.10
2019-05-29T21:08:54.129Z,3.70
2019-05-29T21:11:22.170Z,3.60
2019-05-29T21:13:50.305Z,3.55
2019-05-29T21:16:18.331Z,3.77
2019-05-29T21:18:46.351Z,3.50
2019-05-29T21:21:15.624Z,4.17
2019-05-29T21:23:44.687Z,3.87
2019-05-29T21:26:12.786Z,3.50
2019-05-29T21:28:48.143Z,4.17
2019-05-29T21:31:10.566Z,3.55
2019-05-29T21:33:42.424Z,3.45
2019-05-29T21:36:08.704Z,4.00
2019-05-29T21:38:37.999Z,3.87
2019-05-29T21:41:10.020Z,4.00
2019-05-29T21:43:41.055Z,4.03
2019-05-29T21:46:09.281Z,4.50
2019-05-29T21:48:37.374Z,4.87
2019-05-29T21:51:05.372Z,5.00
2019-05-29T21:53:33.378Z,5.58
2019-05-29T21:56:01.384Z,5.65
2019-05-29T21:58:29.570Z,5.50
2019-05-29T22:00:57.924Z,5.42
2019-05-29T22:03:26.352Z,5.85
2019-05-29T22:05:54.579Z,5.70
2019-05-29T22:08:22.914Z,5.90
2019-05-29T22:10:51.503Z,6.00
2019-05-29T22:13:19.976Z,7.08
2019-05-29T22:15:48.423Z,6.20
2019-05-29T22:18:16.891Z,6.67
2019-05-29T22:20:45.209Z,7.10
2019-05-29T22:23:15.157Z,35.52
2019-05-29T22:25:43.488Z,14.10
2019-05-29T22:28:11.746Z,7.22
2019-05-29T22:30:40.002Z,7.00
2019-05-29T22:33:08.322Z,6.58
2019-05-29T22:35:36.639Z,6.75
2019-05-29T22:38:04.972Z,6.25
2019-05-29T22:40:33.208Z,7.17
2019-05-29T22:43:01.937Z,6.37
2019-05-29T22:45:30.483Z,6.25
2019-05-29T22:47:59.823Z,7.10
2019-05-29T22:50:28.195Z,6.87
2019-05-29T22:52:56.457Z,6.97
2019-05-29T22:55:24.681Z,6.87
2019-05-29T22:57:53.798Z,6.60
2019-05-29T23:00:22.163Z,6.45
2019-05-29T23:02:50.402Z,6.42
2019-05-29T23:05:19.030Z,6.70
2019-05-29T23:07:47.608Z,6.78
2019-05-29T23:10:15.870Z,6.55
2019-05-29T23:12:44.106Z,6.60
2019-05-29T23:15:12.373Z,6.37
2019-05-29T23:17:40.637Z,6.50
2019-05-29T23:20:08.949Z,6.03
2019-05-29T23:22:37.262Z,6.62
2019-05-29T23:25:05.631Z,6.47
2019-05-29T23:27:34.746Z,6.90
2019-05-29T23:30:04.066Z,7.12
2019-05-29T23:32:32.298Z,6.25
2019-05-29T23:35:01.293Z,6.80
2019-05-29T23:37:29.766Z,7.10
2019-05-29T23:39:59.231Z,6.45
2019-05-29T23:42:27.634Z,7.08
2019-05-29T23:44:56.000Z,6.40
2019-05-29T23:47:24.727Z,7.10
2019-05-29T23:49:53.508Z,7.47
2019-05-29T23:52:21.916Z,6.53
2019-05-29T23:54:50.162Z,7.33
2019-05-29T23:57:18.455Z,7.25
2019-05-29T23:59:46.711Z,7.50
